Clipper Venus — LATU7 — position and weather

sailwx.info

Track history (hours):
 
Tides and Currents Weather Stations Pressure Air Temp Water Temp Dewpoint Dewpoint Depression Visibility Wind Speed Wind Dir Waves Ship Positions

Clipper Venus

Last reported at 2018-Jun-20 14:52 UTC. Time now 2018-Jun-21 08:44 UTC.
Position N 36°21' E 014°36'.

Length 199 m; draft 7 m.

Type: Ship (hazmat cat B). MMSI: 257665000.

Date/timePositionNaut miles runAvg speedWind from/ knotsBaromVisibWave heightAir tempDewpointWater temp
2018-Jun-20 14:52N 36°21' E 014°36'715.4
2018-Jun-20 14:24N 36°23' E 014°27'615.4
2018-Jun-20 14:00N 36°25' E 014°20'916.1
2018-Jun-20 13:26N 36°28' E 014°09'715.8
2018-Jun-20 13:00N 36°31' E 014°01'815.7
2018-Jun-20 12:30N 36°32' E 013°52'816.0
2018-Jun-20 12:00N 36°35' E 013°42'816.3
2018-Jun-20 11:30N 36°37' E 013°33'1016.7
2018-Jun-20 10:55N 36°40' E 013°21'53416.2
2018-Jun-19 02:02N 37°07' E 002°15'417.1
2018-Jun-19 01:49N 37°06' E 002°10'617.3
2018-Jun-19 01:29N 37°05' E 002°03'817.4
2018-Jun-19 01:00N 37°03' E 001°53'816.9
2018-Jun-19 00:30N 37°02' E 001°43'816.5
2018-Jun-19 00:00N 36°60' E 001°32'916.2
2018-Jun-18 23:27N 36°58' E 001°21'716.1
2018-Jun-18 22:59N 36°56' E 001°12'816.0
2018-Jun-18 22:30N 36°55' E 001°03'3016.2
2018-Jun-18 20:38N 36°48' E 000°26'416.2
2018-Jun-18 20:23N 36°47' E 000°21'616.1
2018-Jun-18 20:00N 36°46' E 000°14'815.7
2018-Jun-18 19:30N 36°44' E 000°04'815.6
2018-Jun-18 19:00N 36°42' W 000°06'815.6
2018-Jun-18 18:30N 36°41' W 000°15'915.9
2018-Jun-18 17:57N 36°39' W 000°26'715.8
2018-Jun-18 17:30N 36°37' W 000°34'815.3
2018-Jun-18 17:00N 36°36' W 000°44'815.6
2018-Jun-18 16:29N 36°33' W 000°53'815.6
2018-Jun-18 16:00N 36°31' W 001°02'814.8
2018-Jun-18 15:26N 36°28' W 001°12'5 9.2
2018-Jun-18 14:50N 36°27' W 001°18'2 4.7
2018-Jun-18 14:26N 36°26' W 001°21'18416.5
2018-Jun-18 03:18N 36°00' W 005°07'517.9
2018-Jun-18 03:01N 35°60' W 005°13'917.9
2018-Jun-18 02:31N 35°58' W 005°24'1415.3
2018-Jun-18 01:37N 35°54' W 005°40'212.8
2018-Jun-18 01:29N 35°54' W 005°42'612.8
2018-Jun-18 01:00N 35°53' W 005°50'1214.5
2018-Jun-18 00:08N 35°50' W 006°05'  
2018-Jun-14 03:17N 34°34' W 007°26'414.7
2018-Jun-14 03:01N 34°37' W 007°23'714.8
2018-Jun-14 02:30N 34°43' W 007°17'814.8
2018-Jun-14 01:57N 34°49' W 007°11'714.9
2018-Jun-14 01:28N 34°54' W 007°05'715.0
2018-Jun-14 01:00N 34°60' W 006°59'7015.2
2018-Jun-13 20:21N 35°52' W 006°02'2413.1
2018-Jun-13 18:34N 35°58' W 005°34'111.3
2018-Jun-13 18:30N 35°58' W 005°33'510.6
2018-Jun-13 18:00N 35°60' W 005°27'510.2
2018-Jun-13 17:30N 36°01' W 005°21'611.1
2018-Jun-13 17:00N 36°02' W 005°14'22113.2
2018-Jun-13 00:16N 36°33' W 000°42'914.9
2018-Jun-12 23:41N 36°36' W 000°32'315.2
2018-Jun-12 23:29N 36°37' W 000°29'1214.6
2018-Jun-12 22:38N 36°40' W 000°14'414.6
2018-Jun-12 22:23N 36°41' W 000°09'1114.2
2018-Jun-12 21:36N 36°43' E 000°05'114.2
2018-Jun-12 21:30N 36°44' E 000°06'714.2
2018-Jun-12 21:00N 36°46' E 000°14'714.3
2018-Jun-12 20:30N 36°48' E 000°23'1314.3
2018-Jun-12 19:34N 36°51' E 000°39'114.4
2018-Jun-12 19:30N 36°52' E 000°40'914.3
2018-Jun-12 18:53N 36°54' E 000°51'514.2
2018-Jun-12 18:30N 36°56' E 000°57'814.3
2018-Jun-12 17:59N 36°58' E 001°06'714.4
2018-Jun-12 17:30N 36°60' E 001°15'1114.4
2018-Jun-12 16:43N 37°03' E 001°28'314.3
2018-Jun-12 16:30N 37°04' E 001°32'714.2
2018-Jun-12 16:00N 37°06' E 001°40'714.0
2018-Jun-12 15:30N 37°08' E 001°49'713.8
2018-Jun-12 15:00N 37°09' E 001°57'713.8
2018-Jun-12 14:30N 37°11' E 002°05'713.8
2018-Jun-12 14:00N 37°13' E 002°14'713.8
2018-Jun-12 13:28N 37°15' E 002°23'10813.6
2018-Jun-12 05:34N 37°44' E 004°34'414.1
2018-Jun-12 05:18N 37°45' E 004°38'414.0
2018-Jun-12 04:59N 37°46' E 004°44'2314.1
2018-Jun-12 03:22N 37°52' E 005°11'514.1
2018-Jun-12 03:00N 37°53' E 005°18'714.1
2018-Jun-12 02:30N 37°55' E 005°26'223 9.2
2018-Jun-11 02:24N 37°39' E 010°08'2813.8
2018-Jun-11 00:24N 37°35' E 010°42'613.8
2018-Jun-11 00:00N 37°33' E 010°49'  
Track history (hours):
 
Tides and Currents Weather Stations Pressure Air Temp Water Temp Dewpoint Dewpoint Depression Visibility Wind Speed Wind Dir Waves Ship Positions

Clipper Venus

Last reported at 2018-Jun-20 14:52 UTC. Time now 2018-Jun-21 08:44 UTC.
Position N 36°21' E 014°36'.

Length 199 m; draft 7 m.

Type: Ship (hazmat cat B). MMSI: 257665000.

Date/timePositionNaut miles runAvg speedWind from/ knotsBaromVisibWave heightAir tempDewpointWater temp
2018-Jun-20 14:52N 36°21' E 014°36'715.4
2018-Jun-20 14:24N 36°23' E 014°27'615.4
2018-Jun-20 14:00N 36°25' E 014°20'916.1
2018-Jun-20 13:26N 36°28' E 014°09'715.8
2018-Jun-20 13:00N 36°31' E 014°01'815.7
2018-Jun-20 12:30N 36°32' E 013°52'816.0
2018-Jun-20 12:00N 36°35' E 013°42'816.3
2018-Jun-20 11:30N 36°37' E 013°33'1016.7
2018-Jun-20 10:55N 36°40' E 013°21'53416.2
2018-Jun-19 02:02N 37°07' E 002°15'417.1
2018-Jun-19 01:49N 37°06' E 002°10'617.3
2018-Jun-19 01:29N 37°05' E 002°03'817.4
2018-Jun-19 01:00N 37°03' E 001°53'816.9
2018-Jun-19 00:30N 37°02' E 001°43'816.5
2018-Jun-19 00:00N 36°60' E 001°32'916.2
2018-Jun-18 23:27N 36°58' E 001°21'716.1
2018-Jun-18 22:59N 36°56' E 001°12'816.0
2018-Jun-18 22:30N 36°55' E 001°03'3016.2
2018-Jun-18 20:38N 36°48' E 000°26'416.2
2018-Jun-18 20:23N 36°47' E 000°21'616.1
2018-Jun-18 20:00N 36°46' E 000°14'815.7
2018-Jun-18 19:30N 36°44' E 000°04'815.6
2018-Jun-18 19:00N 36°42' W 000°06'815.6
2018-Jun-18 18:30N 36°41' W 000°15'915.9
2018-Jun-18 17:57N 36°39' W 000°26'715.8
2018-Jun-18 17:30N 36°37' W 000°34'815.3
2018-Jun-18 17:00N 36°36' W 000°44'815.6
2018-Jun-18 16:29N 36°33' W 000°53'815.6
2018-Jun-18 16:00N 36°31' W 001°02'814.8
2018-Jun-18 15:26N 36°28' W 001°12'5 9.2
2018-Jun-18 14:50N 36°27' W 001°18'2 4.7
2018-Jun-18 14:26N 36°26' W 001°21'18416.5
2018-Jun-18 03:18N 36°00' W 005°07'517.9
2018-Jun-18 03:01N 35°60' W 005°13'917.9
2018-Jun-18 02:31N 35°58' W 005°24'1415.3
2018-Jun-18 01:37N 35°54' W 005°40'212.8
2018-Jun-18 01:29N 35°54' W 005°42'612.8
2018-Jun-18 01:00N 35°53' W 005°50'1214.5
2018-Jun-18 00:08N 35°50' W 006°05'  
2018-Jun-14 03:17N 34°34' W 007°26'414.7
2018-Jun-14 03:01N 34°37' W 007°23'714.8
2018-Jun-14 02:30N 34°43' W 007°17'814.8
2018-Jun-14 01:57N 34°49' W 007°11'714.9
2018-Jun-14 01:28N 34°54' W 007°05'715.0
2018-Jun-14 01:00N 34°60' W 006°59'7015.2
2018-Jun-13 20:21N 35°52' W 006°02'2413.1
2018-Jun-13 18:34N 35°58' W 005°34'111.3
2018-Jun-13 18:30N 35°58' W 005°33'510.6
2018-Jun-13 18:00N 35°60' W 005°27'510.2
2018-Jun-13 17:30N 36°01' W 005°21'611.1
2018-Jun-13 17:00N 36°02' W 005°14'22113.2
2018-Jun-13 00:16N 36°33' W 000°42'914.9
2018-Jun-12 23:41N 36°36' W 000°32'315.2
2018-Jun-12 23:29N 36°37' W 000°29'1214.6
2018-Jun-12 22:38N 36°40' W 000°14'414.6
2018-Jun-12 22:23N 36°41' W 000°09'1114.2
2018-Jun-12 21:36N 36°43' E 000°05'114.2
2018-Jun-12 21:30N 36°44' E 000°06'714.2
2018-Jun-12 21:00N 36°46' E 000°14'714.3
2018-Jun-12 20:30N 36°48' E 000°23'1314.3
2018-Jun-12 19:34N 36°51' E 000°39'114.4
2018-Jun-12 19:30N 36°52' E 000°40'914.3
2018-Jun-12 18:53N 36°54' E 000°51'514.2
2018-Jun-12 18:30N 36°56' E 000°57'814.3
2018-Jun-12 17:59N 36°58' E 001°06'714.4
2018-Jun-12 17:30N 36°60' E 001°15'1114.4
2018-Jun-12 16:43N 37°03' E 001°28'314.3
2018-Jun-12 16:30N 37°04' E 001°32'714.2
2018-Jun-12 16:00N 37°06' E 001°40'714.0
2018-Jun-12 15:30N 37°08' E 001°49'713.8
2018-Jun-12 15:00N 37°09' E 001°57'713.8
2018-Jun-12 14:30N 37°11' E 002°05'713.8
2018-Jun-12 14:00N 37°13' E 002°14'713.8
2018-Jun-12 13:28N 37°15' E 002°23'10813.6
2018-Jun-12 05:34N 37°44' E 004°34'414.1
2018-Jun-12 05:18N 37°45' E 004°38'414.0
2018-Jun-12 04:59N 37°46' E 004°44'2314.1
2018-Jun-12 03:22N 37°52' E 005°11'514.1
2018-Jun-12 03:00N 37°53' E 005°18'714.1
2018-Jun-12 02:30N 37°55' E 005°26'223 9.2
2018-Jun-11 02:24N 37°39' E 010°08'2813.8
2018-Jun-11 00:24N 37°35' E 010°42'613.8
2018-Jun-11 00:00N 37°33' E 010°49'  

Dump ship's entire track history